Time;durP1;ratioP1;P1;durP2;ratioP2;P2;SDS_P1;SDS_P2;PMS_P1;PMS_P2;Temp;Humidity;BMP_temperature;BMP_pressure;BME280_temperature;BME280_humidity;BME280_pressure;Samples;Min_cycle;Max_cycle;Signal;HPM_P1;HPM_P2
2021/11/10 00:01:37;;;;;;;25.63;7.70;;;9.60;99.90;;;;;;5060119;28;20500;-76
2021/11/10 00:04:03;;;;;;;21.48;7.38;;;9.50;99.90;;;;;;5060039;28;20036;-76
2021/11/10 00:06:29;;;;;;;18.40;6.43;;;9.50;99.90;;;;;;5059743;28;20044;-76
2021/11/10 00:08:54;;;;;;;23.58;7.85;;;9.50;99.90;;;;;;5061557;28;20116;-76
2021/11/10 00:11:20;;;;;;;22.42;6.70;;;9.60;99.90;;;;;;5059112;28;20074;-76
2021/11/10 00:13:47;;;;;;;19.98;7.38;;;9.60;99.90;;;;;;5059794;28;20057;-77
2021/11/10 00:16:12;;;;;;;20.67;6.07;;;9.60;99.90;;;;;;5060069;28;20048;-77
2021/11/10 00:18:38;;;;;;;20.15;6.47;;;9.50;99.90;;;;;;5061432;28;20052;-77
2021/11/10 00:21:05;;;;;;;20.33;7.05;;;9.50;99.90;;;;;;5062000;28;20474;-76
2021/11/10 00:23:32;;;;;;;19.70;6.05;;;9.50;99.90;;;;;;5060540;28;20044;-77
2021/11/10 00:25:58;;;;;;;17.65;6.50;;;9.50;99.90;;;;;;5059025;28;20037;-76
2021/11/10 00:28:24;;;;;;;18.88;7.35;;;9.50;99.90;;;;;;5060648;28;20512;-77
2021/11/10 00:30:50;;;;;;;22.05;7.20;;;9.50;99.90;;;;;;5061157;28;20076;-76
2021/11/10 00:33:16;;;;;;;17.30;6.03;;;9.50;99.90;;;;;;5073346;28;20045;-76
2021/11/10 00:35:42;;;;;;;20.88;7.25;;;9.40;99.90;;;;;;5058816;28;20040;-76
2021/11/10 00:38:09;;;;;;;20.65;6.95;;;9.50;99.90;;;;;;5043453;28;20037;-76
2021/11/10 00:40:35;;;;;;;25.27;6.95;;;9.40;99.90;;;;;;5060208;28;20040;-76
2021/11/10 00:43:01;;;;;;;23.52;7.35;;;9.40;99.90;;;;;;5060594;28;20043;-76
2021/11/10 00:45:26;;;;;;;17.92;6.13;;;9.40;99.90;;;;;;5094040;28;20028;-76
2021/11/10 00:47:52;;;;;;;24.98;7.78;;;9.40;99.90;;;;;;5058055;28;20036;-76
2021/11/10 00:50:17;;;;;;;21.58;7.55;;;9.40;99.90;;;;;;5057278;28;20056;-76
2021/11/10 00:52:43;;;;;;;19.42;6.43;;;9.30;99.90;;;;;;5061299;28;20081;-76
2021/11/10 00:55:09;;;;;;;22.30;7.07;;;9.40;99.90;;;;;;5059598;28;20542;-76
2021/11/10 00:57:35;;;;;;;21.40;6.63;;;9.40;99.90;;;;;;5090676;28;20066;-77
2021/11/10 01:00:00;;;;;;;22.27;6.85;;;9.40;99.90;;;;;;5059840;28;20087;-76
2021/11/10 01:02:26;;;;;;;16.73;6.63;;;9.40;99.90;;;;;;5058677;28;20032;-76
2021/11/10 01:04:52;;;;;;;24.23;7.88;;;9.40;99.90;;;;;;5058067;28;20044;-76
2021/11/10 01:07:18;;;;;;;19.15;6.70;;;9.40;99.90;;;;;;5056838;28;20068;-77
2021/11/10 01:09:47;;;;;;;24.92;7.95;;;9.40;99.90;;;;;;5091381;28;20479;-76
2021/11/10 01:12:13;;;;;;;16.23;6.97;;;9.40;99.90;;;;;;5056411;28;20048;-76
2021/11/10 01:14:41;;;;;;;23.30;8.35;;;9.40;99.90;;;;;;5090699;28;20078;-76
2021/11/10 01:17:08;;;;;;;22.65;7.53;;;9.40;99.90;;;;;;5056670;28;20044;-76
2021/11/10 01:19:36;;;;;;;20.30;8.40;;;9.30;99.90;;;;;;5057200;28;20045;-76
2021/11/10 01:22:03;;;;;;;18.17;8.00;;;9.30;99.90;;;;;;5058978;28;20630;-76
2021/11/10 01:24:28;;;;;;;20.20;7.18;;;9.40;99.90;;;;;;5057182;28;20048;-76
2021/11/10 01:26:54;;;;;;;20.48;8.38;;;9.30;99.90;;;;;;5041278;28;20047;-76
2021/11/10 01:29:20;;;;;;;18.13;8.43;;;9.30;99.90;;;;;;5058510;28;20090;-76
2021/11/10 01:31:45;;;;;;;21.85;8.65;;;9.30;99.90;;;;;;5059191;28;20504;-76
2021/11/10 01:34:11;;;;;;;20.70;9.50;;;9.30;99.90;;;;;;5059718;28;20040;-76
2021/11/10 01:36:38;;;;;;;25.25;9.65;;;9.20;99.90;;;;;;5057581;28;20909;-76
2021/11/10 01:39:04;;;;;;;29.45;10.57;;;9.30;99.90;;;;;;5059277;28;20142;-76
2021/11/10 01:41:32;;;;;;;28.55;10.68;;;9.20;99.90;;;;;;5057624;28;20506;-76
2021/11/10 01:43:57;;;;;;;27.48;10.98;;;9.20;99.90;;;;;;5058474;28;20494;-76
2021/11/10 01:46:23;;;;;;;26.17;11.60;;;9.10;99.90;;;;;;5059516;28;20122;-76
2021/11/10 01:48:49;;;;;;;24.83;11.15;;;9.20;99.90;;;;;;5063574;28;20040;-76
2021/11/10 01:51:14;;;;;;;27.38;11.82;;;9.10;99.90;;;;;;5064624;28;20123;-76
2021/11/10 01:53:40;;;;;;;28.33;12.05;;;9.10;99.90;;;;;;5062031;28;20049;-76
2021/11/10 01:56:06;;;;;;;23.48;12.15;;;9.10;99.90;;;;;;5060165;28;20064;-76
2021/11/10 01:58:32;;;;;;;26.58;11.75;;;9.00;99.90;;;;;;5060531;28;20033;-76
2021/11/10 02:00:57;;;;;;;28.38;11.35;;;9.00;99.90;;;;;;5060935;28;20029;-76
2021/11/10 02:03:23;;;;;;;30.50;11.88;;;9.00;99.90;;;;;;5060436;28;20115;-76
2021/11/10 02:05:50;;;;;;;31.65;11.40;;;9.00;99.90;;;;;;5044450;28;20040;-76
2021/11/10 02:08:16;;;;;;;23.80;11.40;;;8.90;99.90;;;;;;5061254;28;20044;-76
2021/11/10 02:10:42;;;;;;;28.15;11.63;;;8.90;99.90;;;;;;5064248;28;20147;-77
2021/11/10 02:13:08;;;;;;;33.05;11.23;;;8.90;99.90;;;;;;5061829;28;20170;-76
2021/11/10 02:15:34;;;;;;;22.27;10.80;;;8.90;99.90;;;;;;5063760;28;20032;-76
2021/11/10 02:18:01;;;;;;;22.40;11.75;;;8.90;99.90;;;;;;5059596;28;20490;-76
2021/11/10 02:20:31;;;;;;;28.95;10.68;;;8.90;99.90;;;;;;5062446;28;20039;-76
2021/11/10 02:22:57;;;;;;;21.45;10.90;;;8.90;99.90;;;;;;5061549;28;20048;-76
2021/11/10 02:25:23;;;;;;;26.38;12.20;;;9.00;99.90;;;;;;5062479;28;20421;-76
2021/11/10 02:27:48;;;;;;;24.98;11.50;;;8.90;99.90;;;;;;5058026;28;20040;-76
2021/11/10 02:30:18;;;;;;;26.80;11.07;;;8.90;99.90;;;;;;5062431;28;20080;-76
2021/11/10 02:32:50;;;;;;;22.33;11.45;;;8.90;99.90;;;;;;5066506;28;20037;-76
2021/11/10 02:35:19;;;;;;;21.63;10.52;;;8.90;99.90;;;;;;5063384;28;20051;-76
2021/11/10 02:37:48;;;;;;;20.98;10.40;;;8.90;99.90;;;;;;5059720;28;20502;-76
2021/11/10 02:40:13;;;;;;;27.48;10.65;;;8.90;99.90;;;;;;5065518;28;20435;-76
2021/11/10 02:42:39;;;;;;;23.58;9.88;;;8.90;99.90;;;;;;5064199;28;20187;-76
2021/11/10 02:45:07;;;;;;;24.15;10.27;;;8.90;99.90;;;;;;5065654;28;20086;-76
2021/11/10 02:47:34;;;;;;;22.33;10.90;;;8.90;99.90;;;;;;5064011;28;20052;-76
2021/11/10 02:50:00;;;;;;;36.33;11.50;;;8.90;99.90;;;;;;5065149;28;20810;-77
2021/11/10 02:52:25;;;;;;;27.40;10.30;;;9.00;99.90;;;;;;5066835;28;20052;-77
2021/11/10 02:54:54;;;;;;;23.42;11.77;;;8.90;99.90;;;;;;5064394;28;20087;-76
2021/11/10 02:57:22;;;;;;;20.75;10.65;;;8.90;99.90;;;;;;5061064;28;20041;-76
2021/11/10 02:59:48;;;;;;;21.55;10.25;;;9.00;99.90;;;;;;5065428;28;20049;-76
2021/11/10 03:02:14;;;;;;;22.88;9.90;;;9.00;99.90;;;;;;5065627;28;20043;-76
2021/11/10 03:04:45;;;;;;;26.70;10.52;;;9.00;99.90;;;;;;5065301;28;20048;-76
2021/11/10 03:07:12;;;;;;;21.77;10.18;;;9.00;99.90;;;;;;5063647;28;20043;-76
2021/11/10 03:09:38;;;;;;;22.80;10.82;;;8.90;99.90;;;;;;5065238;28;20049;-76
2021/11/10 03:12:06;;;;;;;18.23;10.10;;;8.90;99.90;;;;;;5064300;28;20051;-76
2021/11/10 03:14:35;;;;;;;22.55;10.20;;;9.00;99.90;;;;;;5062201;28;20052;-76
2021/11/10 03:17:04;;;;;;;35.45;12.55;;;9.00;99.90;;;;;;5063505;28;20120;-77
2021/11/10 03:19:30;;;;;;;21.45;10.25;;;9.00;99.90;;;;;;5064538;28;20048;-76
2021/11/10 03:21:55;;;;;;;28.17;11.55;;;8.90;99.90;;;;;;5063487;28;20036;-76
2021/11/10 03:24:21;;;;;;;20.98;10.80;;;9.00;99.90;;;;;;5066767;28;20044;-76
2021/11/10 03:26:46;;;;;;;25.15;10.93;;;8.90;99.90;;;;;;5063718;28;20054;-76
2021/11/10 03:29:13;;;;;;;24.17;10.02;;;9.00;99.90;;;;;;5064292;28;20040;-76
2021/11/10 03:31:39;;;;;;;26.83;10.85;;;9.00;99.90;;;;;;5063160;28;20049;-76
2021/11/10 03:34:09;;;;;;;24.38;10.02;;;9.00;99.90;;;;;;5062919;28;20044;-76
2021/11/10 03:36:36;;;;;;;23.42;10.75;;;9.00;99.90;;;;;;5061086;28;20528;-76
2021/11/10 03:39:04;;;;;;;22.92;9.95;;;9.00;99.90;;;;;;5062667;28;20067;-76
2021/11/10 03:41:30;;;;;;;19.52;9.68;;;9.00;99.90;;;;;;5066872;28;20044;-77
2021/11/10 03:43:56;;;;;;;19.70;9.43;;;8.90;99.90;;;;;;5064265;28;20036;-77
2021/11/10 03:46:23;;;;;;;21.30;9.27;;;9.00;99.90;;;;;;5063623;28;20037;-76
2021/11/10 03:48:49;;;;;;;18.92;9.05;;;9.00;99.90;;;;;;5065423;28;21356;-76
2021/11/10 03:51:16;;;;;;;27.83;9.10;;;9.00;99.90;;;;;;5062972;28;20053;-76
2021/11/10 03:53:42;;;;;;;23.65;7.82;;;9.00;99.90;;;;;;5061783;28;20124;-76
2021/11/10 03:56:07;;;;;;;18.75;7.90;;;9.00;99.90;;;;;;5063051;28;20682;-76
2021/11/10 03:58:34;;;;;;;18.00;7.47;;;9.10;99.90;;;;;;5062409;28;20079;-76
2021/11/10 04:01:01;;;;;;;21.92;8.00;;;9.10;99.90;;;;;;5095425;28;21268;-76
2021/11/10 04:03:27;;;;;;;16.13;7.72;;;9.00;99.90;;;;;;5062547;28;20044;-76
2021/11/10 04:05:53;;;;;;;17.73;7.40;;;9.10;99.90;;;;;;5064679;28;20078;-76
2021/11/10 04:08:19;;;;;;;16.35;7.68;;;9.00;99.90;;;;;;5060278;28;20055;-76
2021/11/10 04:10:45;;;;;;;20.95;8.40;;;9.10;99.90;;;;;;5065581;28;20501;-76
2021/11/10 04:13:11;;;;;;;19.70;7.90;;;9.10;99.90;;;;;;5064294;28;20044;-76
2021/11/10 04:15:37;;;;;;;18.63;7.38;;;9.10;99.90;;;;;;5062283;28;21470;-75
2021/11/10 04:18:05;;;;;;;16.90;6.70;;;9.10;99.90;;;;;;5078350;28;20544;-76
2021/11/10 04:20:31;;;;;;;15.43;6.60;;;9.10;99.90;;;;;;5062898;28;20106;-77
2021/11/10 04:22:57;;;;;;;22.38;7.93;;;9.10;99.90;;;;;;5064361;28;20490;-75
2021/11/10 04:25:23;;;;;;;20.20;7.35;;;9.10;99.90;;;;;;5065099;28;20047;-77
2021/11/10 04:27:50;;;;;;;18.02;8.02;;;9.10;99.90;;;;;;5062496;28;20542;-76
2021/11/10 04:30:16;;;;;;;18.23;7.22;;;9.10;99.90;;;;;;5064515;28;20128;-76
2021/11/10 04:32:44;;;;;;;16.90;7.70;;;9.10;99.90;;;;;;5061930;28;20044;-76
2021/11/10 04:35:11;;;;;;;19.02;8.02;;;9.10;99.90;;;;;;5059933;28;20036;-77
2021/11/10 04:37:37;;;;;;;19.02;6.82;;;9.10;99.90;;;;;;5060073;28;20048;-76
2021/11/10 04:40:06;;;;;;;14.75;7.65;;;9.10;99.90;;;;;;5060769;28;20043;-77
2021/11/10 04:42:31;;;;;;;15.65;7.28;;;9.10;99.90;;;;;;5057967;28;20066;-76
2021/11/10 04:45:04;;;;;;;16.20;8.15;;;9.10;99.90;;;;;;5060122;28;20066;-76
2021/11/10 04:47:30;;;;;;;17.35;7.47;;;9.10;99.90;;;;;;5056144;28;20103;-76
2021/11/10 04:49:56;;;;;;;15.35;7.10;;;9.10;99.90;;;;;;5058104;28;20044;-76
2021/11/10 04:52:22;;;;;;;20.08;7.95;;;9.10;99.90;;;;;;5060005;28;20170;-76
2021/11/10 04:54:50;;;;;;;19.75;8.30;;;9.10;99.90;;;;;;5056545;28;20113;-76
2021/11/10 04:57:15;;;;;;;18.17;7.93;;;9.10;99.90;;;;;;5058839;28;20444;-76
2021/11/10 04:59:44;;;;;;;16.42;8.18;;;9.10;99.90;;;;;;5058890;28;20048;-76
2021/11/10 05:04:37;;;;;;;15.02;8.15;;;9.00;99.90;;;;;;5057713;28;20676;-77
2021/11/10 05:07:04;;;;;;;15.02;8.18;;;9.00;99.90;;;;;;5055488;28;20151;-76
2021/11/10 05:09:30;;;;;;;13.60;8.93;;;9.00;99.90;;;;;;5058677;28;20040;-76
2021/11/10 05:11:56;;;;;;;13.00;8.45;;;9.00;99.90;;;;;;5057979;28;20040;-76
2021/11/10 05:14:22;;;;;;;18.33;9.88;;;9.00;99.90;;;;;;5056854;28;20053;-76
2021/11/10 05:16:49;;;;;;;15.88;9.07;;;9.00;99.90;;;;;;5092118;28;20051;-76
2021/11/10 05:19:15;;;;;;;17.92;9.65;;;9.00;99.90;;;;;;5073650;28;20044;-76
2021/11/10 05:21:41;;;;;;;19.77;10.77;;;8.90;99.90;;;;;;5059457;28;20027;-76
2021/11/10 05:24:07;;;;;;;17.27;9.52;;;8.90;99.90;;;;;;5057182;28;20477;-76
2021/11/10 05:26:33;;;;;;;16.95;9.25;;;8.90;99.90;;;;;;5059630;28;20048;-76
2021/11/10 05:28:59;;;;;;;18.35;9.85;;;8.80;99.90;;;;;;5062824;28;20044;-76
2021/11/10 05:31:24;;;;;;;19.83;10.27;;;8.80;99.90;;;;;;5059925;28;20585;-76
2021/11/10 05:33:51;;;;;;;15.90;11.27;;;8.80;99.90;;;;;;5059108;28;20064;-76
2021/11/10 05:36:17;;;;;;;16.30;10.23;;;8.80;99.90;;;;;;5059879;28;20043;-76
2021/11/10 05:38:43;;;;;;;21.77;11.18;;;8.80;99.90;;;;;;5058717;28;20048;-76
2021/11/10 05:41:09;;;;;;;17.27;10.27;;;8.70;99.90;;;;;;5091688;28;20448;-76
2021/11/10 05:43:35;;;;;;;21.98;10.70;;;8.80;99.90;;;;;;5056385;28;20047;-76
2021/11/10 05:46:04;;;;;;;17.50;11.52;;;8.70;99.90;;;;;;5061926;28;20505;-76
2021/11/10 05:48:30;;;;;;;18.45;11.35;;;8.70;99.90;;;;;;5061421;28;20054;-76
2021/11/10 05:50:56;;;;;;;19.42;11.07;;;8.70;99.90;;;;;;5093495;28;20040;-77
2021/11/10 05:53:21;;;;;;;16.10;11.23;;;8.70;99.90;;;;;;5058652;28;20487;-76
2021/11/10 05:55:52;;;;;;;18.10;10.73;;;8.60;99.90;;;;;;5060983;28;20765;-76
2021/11/10 05:58:19;;;;;;;20.58;10.95;;;8.60;99.90;;;;;;5057596;28;20048;-76
2021/11/10 06:00:45;;;;;;;19.95;10.93;;;8.60;99.90;;;;;;5057279;28;20355;-76
2021/11/10 06:03:11;;;;;;;23.23;11.90;;;8.60;99.90;;;;;;5061739;28;20032;-76
2021/11/10 06:05:37;;;;;;;22.63;12.07;;;8.60;99.90;;;;;;5060472;28;20052;-76
2021/11/10 06:08:03;;;;;;;21.75;12.77;;;8.60;99.90;;;;;;5061334;28;20032;-76
2021/11/10 06:10:35;;;;;;;23.00;12.18;;;8.50;99.90;;;;;;5063776;28;20079;-76
2021/11/10 06:13:01;;;;;;;20.15;11.63;;;8.50;99.90;;;;;;5065593;28;20727;-76
2021/11/10 06:15:26;;;;;;;20.48;11.93;;;8.50;99.90;;;;;;5065078;28;20127;-77
2021/11/10 06:17:52;;;;;;;18.45;11.50;;;8.50;99.90;;;;;;5060007;28;20131;-76
2021/11/10 06:20:18;;;;;;;18.77;11.88;;;8.50;99.90;;;;;;5048269;28;20604;-76
2021/11/10 06:22:44;;;;;;;21.85;11.40;;;8.50;99.90;;;;;;5062562;28;20099;-76
2021/11/10 06:25:11;;;;;;;18.83;11.93;;;8.50;99.90;;;;;;5064450;28;20036;-76
2021/11/10 06:27:37;;;;;;;22.33;11.38;;;8.40;99.90;;;;;;5061311;28;20044;-76
2021/11/10 06:30:04;;;;;;;19.40;11.18;;;8.50;99.90;;;;;;5062171;28;20040;-76
2021/11/10 06:32:30;;;;;;;16.90;10.93;;;8.50;99.90;;;;;;5092400;28;20048;-76
2021/11/10 06:34:56;;;;;;;23.85;12.20;;;8.40;99.90;;;;;;5062956;28;20109;-76
2021/11/10 06:37:22;;;;;;;19.45;11.70;;;8.40;99.90;;;;;;5060128;28;21918;-76
2021/11/10 06:39:48;;;;;;;18.10;11.30;;;8.40;99.90;;;;;;5062010;28;20406;-76
2021/11/10 06:42:13;;;;;;;20.88;11.48;;;8.40;99.90;;;;;;5063744;28;20041;-76
2021/11/10 06:44:39;;;;;;;23.33;12.65;;;8.40;99.90;;;;;;5063595;28;20037;-76
2021/11/10 06:47:05;;;;;;;19.73;12.18;;;8.40;99.90;;;;;;5058911;28;20102;-76
2021/11/10 06:49:31;;;;;;;23.65;12.00;;;8.40;99.90;;;;;;5062304;28;20433;-76
2021/11/10 06:51:57;;;;;;;25.33;11.63;;;8.30;99.90;;;;;;5060804;28;20067;-76
2021/11/10 06:54:24;;;;;;;22.73;11.00;;;8.40;99.90;;;;;;5060874;28;20068;-76
2021/11/10 06:56:50;;;;;;;23.42;11.98;;;8.30;99.90;;;;;;5059594;28;20040;-76
2021/11/10 06:59:17;;;;;;;20.02;12.80;;;8.30;99.90;;;;;;5064147;28;20033;-76
2021/11/10 07:01:43;;;;;;;21.92;12.07;;;8.30;99.90;;;;;;5061308;28;20040;-76
2021/11/10 07:04:09;;;;;;;21.13;11.98;;;8.30;99.90;;;;;;5046256;28;20048;-76
2021/11/10 07:06:34;;;;;;;22.38;13.32;;;8.40;99.90;;;;;;5058856;28;20776;-76
2021/11/10 07:09:00;;;;;;;22.98;11.75;;;8.40;99.90;;;;;;5062890;28;20040;-76
2021/11/10 07:11:26;;;;;;;21.85;13.13;;;8.40;99.90;;;;;;5054926;28;20052;-76
2021/11/10 07:13:51;;;;;;;18.88;12.00;;;8.40;99.90;;;;;;5057421;28;20110;-76
2021/11/10 07:16:17;;;;;;;25.55;11.85;;;8.40;99.90;;;;;;5054684;28;20055;-76
2021/11/10 07:18:43;;;;;;;23.02;12.63;;;8.50;99.90;;;;;;5059098;28;20076;-76
2021/11/10 07:21:09;;;;;;;18.98;12.75;;;8.50;99.90;;;;;;5059655;28;20963;-76
2021/11/10 07:23:35;;;;;;;24.42;12.60;;;8.50;99.90;;;;;;5062426;28;20032;-76
2021/11/10 07:26:02;;;;;;;26.67;13.77;;;8.50;99.90;;;;;;5090721;28;20037;-76
2021/11/10 07:28:28;;;;;;;21.10;12.82;;;8.60;99.90;;;;;;5057456;28;20048;-76
2021/11/10 07:30:54;;;;;;;21.35;12.93;;;8.60;99.90;;;;;;5065191;28;20043;-76
2021/11/10 07:33:20;;;;;;;28.17;12.75;;;8.60;99.90;;;;;;5067322;28;20064;-76
2021/11/10 07:35:46;;;;;;;24.42;13.70;;;8.70;99.90;;;;;;5062161;28;20039;-76
2021/11/10 07:38:13;;;;;;;19.67;12.10;;;8.70;99.90;;;;;;5041068;28;20064;-76
2021/11/10 07:40:39;;;;;;;16.73;12.23;;;8.70;99.90;;;;;;5091554;28;20040;-76
2021/11/10 07:43:05;;;;;;;20.65;12.02;;;8.70;99.90;;;;;;5060324;28;20047;-76
2021/11/10 07:45:38;;;;;;;18.75;12.50;;;8.80;99.90;;;;;;5057374;28;20048;-76
2021/11/10 07:48:06;;;;;;;21.63;12.90;;;8.90;99.90;;;;;;5057711;28;20040;-77
2021/11/10 07:50:33;;;;;;;21.05;12.05;;;8.90;99.90;;;;;;5058435;28;20094;-76
2021/11/10 07:52:59;;;;;;;22.58;12.57;;;9.00;99.90;;;;;;5058695;28;20056;-76
2021/11/10 07:55:26;;;;;;;19.98;12.93;;;9.00;99.90;;;;;;5061530;28;20044;-76
2021/11/10 07:57:52;;;;;;;22.67;13.20;;;9.10;99.90;;;;;;5056738;28;20068;-76
2021/11/10 08:00:19;;;;;;;19.50;11.15;;;9.10;99.90;;;;;;5061137;28;20665;-77
2021/11/10 08:02:45;;;;;;;20.75;12.68;;;9.10;99.90;;;;;;5058689;28;20482;-76
2021/11/10 08:05:12;;;;;;;19.80;11.88;;;9.10;99.90;;;;;;5059808;28;20047;-76
2021/11/10 08:07:38;;;;;;;21.42;12.30;;;9.10;99.90;;;;;;5057778;28;20467;-76
2021/11/10 08:10:05;;;;;;;19.15;12.45;;;9.10;99.90;;;;;;5058567;28;20111;-76
2021/11/10 08:12:32;;;;;;;22.98;12.57;;;9.20;99.90;;;;;;5060481;28;20679;-76
2021/11/10 08:14:58;;;;;;;18.10;11.52;;;9.20;99.90;;;;;;5059770;28;20041;-76
2021/11/10 08:17:25;;;;;;;19.27;11.55;;;9.20;99.90;;;;;;5054675;28;20483;-76
2021/11/10 08:19:51;;;;;;;21.13;12.23;;;9.20;99.90;;;;;;5056264;28;20032;-76
2021/11/10 08:22:17;;;;;;;21.15;11.30;;;9.30;99.90;;;;;;5059198;28;20044;-76
2021/11/10 08:24:45;;;;;;;19.80;11.27;;;9.30;99.90;;;;;;5061099;28;20044;-76
2021/11/10 08:27:11;;;;;;;24.38;11.20;;;9.40;99.90;;;;;;5056320;28;20449;-76
2021/11/10 08:29:37;;;;;;;23.13;10.70;;;9.40;99.90;;;;;;5055426;28;20047;-76
2021/11/10 08:32:03;;;;;;;22.83;11.30;;;9.40;99.90;;;;;;5090580;28;20119;-76
2021/11/10 08:34:29;;;;;;;17.92;9.70;;;9.50;99.90;;;;;;5058843;28;20059;-76
2021/11/10 08:36:54;;;;;;;21.02;10.05;;;9.50;99.90;;;;;;5055881;28;20051;-76
2021/11/10 08:39:20;;;;;;;23.33;11.40;;;9.60;99.90;;;;;;5055653;28;20032;-76
2021/11/10 08:41:48;;;;;;;17.67;10.43;;;9.60;99.90;;;;;;5058074;28;20105;-76
2021/11/10 08:44:15;;;;;;;26.38;10.93;;;9.70;99.90;;;;;;5058211;28;20064;-76
2021/11/10 08:46:42;;;;;;;22.60;11.07;;;9.70;99.90;;;;;;5057121;28;20556;-76
2021/11/10 08:49:08;;;;;;;27.55;10.57;;;9.70;99.90;;;;;;5056558;28;20056;-76
2021/11/10 08:51:34;;;;;;;22.40;10.98;;;9.70;99.90;;;;;;5089266;28;20044;-76
2021/11/10 08:54:00;;;;;;;22.92;10.98;;;9.80;99.90;;;;;;5059340;28;20471;-76
2021/11/10 08:56:26;;;;;;;20.63;10.68;;;9.70;99.90;;;;;;5056936;28;20191;-76
2021/11/10 08:58:52;;;;;;;25.15;10.63;;;9.80;99.90;;;;;;5056314;28;20044;-76
2021/11/10 09:01:18;;;;;;;23.13;11.07;;;9.70;99.90;;;;;;5058232;28;20043;-76
2021/11/10 09:03:44;;;;;;;20.08;10.65;;;9.70;99.90;;;;;;5090767;28;20128;-76
2021/11/10 09:06:13;;;;;;;21.52;10.27;;;9.70;99.90;;;;;;5055638;28;20473;-76
2021/11/10 09:08:39;;;;;;;19.48;10.05;;;9.70;99.90;;;;;;5089761;28;20032;-76
2021/11/10 09:11:05;;;;;;;29.13;10.80;;;9.70;99.90;;;;;;5089606;28;20079;-76
2021/11/10 09:13:30;;;;;;;24.58;11.40;;;9.60;99.90;;;;;;5046876;28;20041;-76
2021/11/10 09:15:57;;;;;;;18.88;10.48;;;9.70;99.90;;;;;;5058104;28;20575;-76
2021/11/10 09:18:26;;;;;;;22.05;10.52;;;9.70;99.90;;;;;;5057454;28;20131;-76
2021/11/10 09:20:52;;;;;;;23.50;10.02;;;9.70;99.90;;;;;;5062796;28;20040;-76
2021/11/10 09:23:20;;;;;;;19.30;9.27;;;9.70;99.90;;;;;;5094044;28;20044;-76
2021/11/10 09:25:47;;;;;;;25.17;11.43;;;9.70;99.90;;;;;;5058319;28;20032;-75
2021/11/10 09:28:16;;;;;;;20.08;10.02;;;9.70;99.90;;;;;;5054830;28;20041;-76
2021/11/10 09:30:44;;;;;;;22.75;10.95;;;9.70;99.90;;;;;;5055328;28;20043;-76
2021/11/10 09:33:11;;;;;;;26.10;12.00;;;9.80;99.90;;;;;;5055278;28;20049;-76
2021/11/10 09:35:37;;;;;;;25.52;11.00;;;9.80;99.90;;;;;;5088694;28;20036;-76
2021/11/10 09:38:04;;;;;;;24.35;9.63;;;9.80;99.90;;;;;;5056554;28;20120;-76
2021/11/10 09:40:36;;;;;;;25.17;10.38;;;9.80;99.90;;;;;;5056118;28;20041;-77
2021/11/10 09:43:02;;;;;;;24.95;10.95;;;9.90;99.90;;;;;;5056025;28;20040;-76
2021/11/10 09:45:32;;;;;;;25.45;11.05;;;9.90;99.90;;;;;;5057070;28;20044;-76
2021/11/10 09:47:59;;;;;;;25.02;11.02;;;9.90;99.90;;;;;;5056637;28;20367;-76
2021/11/10 09:50:27;;;;;;;20.85;9.55;;;9.90;99.90;;;;;;5059017;28;20494;-76
2021/11/10 09:52:55;;;;;;;23.42;8.75;;;9.90;99.90;;;;;;5057689;28;20544;-76
2021/11/10 09:55:23;;;;;;;23.52;9.68;;;9.90;99.90;;;;;;5056913;28;20044;-76
2021/11/10 09:57:51;;;;;;;20.05;9.07;;;10.00;99.90;;;;;;5055839;28;20072;-76
2021/11/10 10:00:20;;;;;;;19.35;9.73;;;10.00;99.90;;;;;;5056898;28;20033;-77
2021/11/10 10:02:48;;;;;;;18.13;9.63;;;10.00;99.90;;;;;;5059054;28;20408;-76
2021/11/10 10:05:18;;;;;;;25.15;10.07;;;10.00;99.90;;;;;;5056316;28;20033;-77
2021/11/10 10:07:48;;;;;;;21.27;9.32;;;10.00;99.90;;;;;;5054615;28;20123;-76
2021/11/10 10:10:14;;;;;;;24.75;9.43;;;10.10;99.90;;;;;;5089942;28;20044;-76
2021/11/10 10:12:41;;;;;;;23.40;9.68;;;10.10;99.90;;;;;;5055611;28;20037;-76
2021/11/10 10:15:10;;;;;;;20.70;9.40;;;10.10;99.90;;;;;;5056675;28;20047;-77
2021/11/10 10:17:45;;;;;;;19.20;9.07;;;10.00;99.90;;;;;;5054893;28;20948;-77
2021/11/10 10:20:31;;;;;;;28.75;11.55;;;10.10;99.90;;;;;;5057078;28;20064;-77
2021/11/10 10:23:01;;;;;;;15.82;9.38;;;10.10;99.90;;;;;;5059935;28;20036;-77
2021/11/10 10:25:58;;;;;;;16.80;9.30;;;10.00;99.90;;;;;;5054409;28;20071;-77
2021/11/10 10:28:28;;;;;;;20.90;8.77;;;10.10;99.90;;;;;;5069989;28;20044;-76
2021/11/10 10:31:08;;;;;;;18.85;8.43;;;10.10;99.90;;;;;;5057331;28;20044;-77
2021/11/10 10:33:49;;;;;;;25.38;9.80;;;10.10;99.90;;;;;;5054689;28;21090;-76
2021/11/10 10:36:26;;;;;;;25.35;8.10;;;10.10;99.90;;;;;;5086747;28;20029;-76
2021/11/10 10:39:04;;;;;;;22.13;9.98;;;10.00;99.90;;;;;;5055607;28;20044;-76
2021/11/10 10:41:35;;;;;;;25.70;9.25;;;10.00;99.90;;;;;;5089044;28;20037;-77
2021/11/10 10:44:09;;;;;;;23.08;9.15;;;10.00;99.90;;;;;;5056787;28;20124;-77
2021/11/10 10:46:39;;;;;;;27.80;11.35;;;10.10;99.90;;;;;;5055673;28;20155;-76
2021/11/10 10:49:18;;;;;;;18.45;8.93;;;10.00;99.90;;;;;;5057180;28;20052;-76
2021/11/10 10:51:47;;;;;;;26.75;9.50;;;10.00;99.90;;;;;;5056146;28;20041;-77
2021/11/10 10:54:13;;;;;;;25.63;10.15;;;10.00;99.90;;;;;;5061411;28;20055;-76
2021/11/10 10:56:43;;;;;;;26.35;9.88;;;10.00;99.90;;;;;;5058306;28;20040;-76
2021/11/10 10:59:11;;;;;;;23.83;8.43;;;10.00;99.90;;;;;;5046408;28;20041;-76
2021/11/10 11:01:49;;;;;;;20.45;8.88;;;10.00;99.90;;;;;;5059418;28;20090;-76
2021/11/10 11:04:17;;;;;;;21.23;9.85;;;10.00;99.90;;;;;;5092724;28;20470;-76
2021/11/10 11:06:45;;;;;;;18.70;8.90;;;10.00;99.90;;;;;;5060236;28;20098;-76
2021/11/10 11:09:19;;;;;;;18.65;9.45;;;10.00;99.90;;;;;;5061451;28;20480;-76
2021/11/10 11:12:06;;;;;;;26.05;10.73;;;10.10;99.90;;;;;;5058629;28;20052;-77
2021/11/10 11:17:18;;;;;;;26.10;11.15;;;10.10;99.90;;;;;;5059068;28;20060;-76
2021/11/10 11:20:11;;;;;;;18.55;9.25;;;10.10;99.90;;;;;;5060021;28;20044;-76
2021/11/10 11:22:40;;;;;;;18.83;9.43;;;10.10;99.90;;;;;;5055506;28;20585;-76
2021/11/10 11:25:16;;;;;;;18.70;10.43;;;10.10;99.90;;;;;;5062894;28;20061;-76
2021/11/10 11:28:01;;;;;;;24.48;9.75;;;10.10;99.90;;;;;;5057999;28;20111;-76
2021/11/10 11:30:34;;;;;;;24.83;9.95;;;10.10;99.90;;;;;;5058724;28;20044;-76
2021/11/10 11:33:02;;;;;;;32.63;10.32;;;10.10;99.90;;;;;;5071436;28;20083;-76
2021/11/10 11:35:38;;;;;;;28.95;11.13;;;10.10;99.90;;;;;;5059020;28;20479;-76
2021/11/10 11:38:05;;;;;;;;;;;10.20;99.90;;;;;;5061049;28;20479;-76
2021/11/10 11:40:33;;;;;;;29.05;10.45;;;10.20;99.90;;;;;;5059920;28;19920;-77
2021/11/10 11:43:01;;;;;;;24.92;9.93;;;10.20;99.90;;;;;;5058065;28;20580;-76
2021/11/10 11:45:29;;;;;;;23.63;9.90;;;10.20;99.90;;;;;;5059697;28;20079;-76
2021/11/10 11:47:56;;;;;;;26.83;10.82;;;10.20;99.90;;;;;;5062977;28;20041;-76
2021/11/10 11:50:23;;;;;;;19.65;9.40;;;10.20;99.90;;;;;;5064290;28;20088;-76
2021/11/10 11:52:51;;;;;;;19.23;9.88;;;10.20;99.90;;;;;;5062132;28;20048;-76
2021/11/10 11:55:22;;;;;;;26.85;11.25;;;10.20;99.90;;;;;;5059868;28;20080;-76
2021/11/10 11:58:17;;;;;;;24.63;10.55;;;10.20;99.90;;;;;;5057505;28;20413;-76
2021/11/10 12:00:50;;;;;;;21.88;10.63;;;10.20;99.90;;;;;;5059421;28;20386;-77
2021/11/10 12:03:25;;;;;;;32.90;10.25;;;10.20;99.90;;;;;;5057361;28;20044;-76
2021/11/10 12:05:52;;;;;;;23.38;9.68;;;10.20;99.90;;;;;;5058739;28;20110;-76
2021/11/10 12:08:40;;;;;;;19.15;8.95;;;10.20;99.90;;;;;;5054118;28;20033;-76
2021/11/10 12:11:32;;;;;;;26.48;10.15;;;10.20;99.90;;;;;;5060712;28;20043;-76
2021/11/10 12:14:18;;;;;;;22.48;9.73;;;10.20;99.90;;;;;;5057994;28;20050;-76
2021/11/10 12:17:11;;;;;;;25.95;9.98;;;10.20;99.90;;;;;;5055950;28;20051;-76
2021/11/10 12:19:39;;;;;;;23.75;9.05;;;10.20;99.90;;;;;;5056771;28;20048;-76
2021/11/10 12:22:19;;;;;;;23.90;10.30;;;10.20;99.90;;;;;;5058184;28;20393;-76
2021/11/10 12:24:51;;;;;;;23.45;9.98;;;10.20;99.90;;;;;;5059848;28;20036;-76
2021/11/10 12:27:32;;;;;;;27.65;9.60;;;10.30;99.90;;;;;;5057408;28;20052;-76
2021/11/10 12:30:04;;;;;;;31.20;10.05;;;10.30;99.90;;;;;;5060800;28;20052;-77
2021/11/10 12:32:30;;;;;;;25.48;8.32;;;10.30;99.90;;;;;;5058933;28;20053;-76
2021/11/10 12:34:57;;;;;;;29.77;10.40;;;10.30;99.90;;;;;;5058124;28;20044;-76
2021/11/10 12:37:29;;;;;;;29.33;9.77;;;10.30;99.90;;;;;;5089201;28;20064;-76
2021/11/10 12:40:15;;;;;;;27.00;9.50;;;10.40;99.90;;;;;;5059021;28;20040;-76
2021/11/10 12:43:02;;;;;;;22.63;9.27;;;10.40;99.90;;;;;;5055881;28;20040;-76
2021/11/10 12:45:37;;;;;;;27.60;10.30;;;10.40;99.90;;;;;;5090614;28;20041;-76
2021/11/10 12:48:05;;;;;;;28.65;10.45;;;10.40;99.90;;;;;;5087895;28;20102;-76
2021/11/10 12:50:38;;;;;;;26.17;9.95;;;10.40;99.90;;;;;;5056172;28;20033;-78